Time;durP1;ratioP1;P1;durP2;ratioP2;P2;SDS_P1;SDS_P2;PMS_P1;PMS_P2;Temp;Humidity;BMP_temperature;BMP_pressure;BME280_temperature;BME280_humidity;BME280_pressure;Samples;Min_cycle;Max_cycle;Signal;HPM_P1;HPM_P2
2023/05/02 00:00:39;;;;;;;8.85;6.13;;;;;;;;;;5077064;28;20127;-68
2023/05/02 00:03:06;;;;;;;9.82;5.63;;;;;;;;;;5077806;28;20053;-69
2023/05/02 00:05:33;;;;;;;8.63;6.60;;;;;;;;;;5076410;28;20506;-68
2023/05/02 00:08:00;;;;;;;8.77;6.18;;;;;;;;;;5077587;28;20159;-68
2023/05/02 00:10:26;;;;;;;7.10;5.70;;;;;;;;;;5077733;28;20131;-68
2023/05/02 00:12:53;;;;;;;11.00;7.80;;;;;;;;;;5049803;28;20055;-68
2023/05/02 00:15:19;;;;;;;9.80;8.90;;;;;;;;;;5075807;28;20050;-68
2023/05/02 00:17:46;;;;;;;6.95;5.55;;;;;;;;;;5074209;28;20040;-69
2023/05/02 00:20:12;;;;;;;7.93;5.65;;;;;;;;;;5074249;28;20044;-69
2023/05/02 00:22:39;;;;;;;5.75;4.85;;;;;;;;;;5072815;28;20204;-68
2023/05/02 00:25:05;;;;;;;6.65;4.90;;;;;;;;;;5074244;28;20049;-68
2023/05/02 00:27:32;;;;;;;5.80;4.43;;;;;;;;;;5074110;28;20503;-68
2023/05/02 00:29:59;;;;;;;7.43;4.70;;;;;;;;;;5074265;28;20494;-68
2023/05/02 00:32:26;;;;;;;7.65;4.72;;;;;;;;;;5074359;28;20056;-68
2023/05/02 00:34:53;;;;;;;5.00;4.13;;;;;;;;;;5074122;28;20117;-68
2023/05/02 00:37:20;;;;;;;5.72;3.67;;;;;;;;;;5073839;28;20581;-68
2023/05/02 00:39:46;;;;;;;5.10;3.72;;;;;;;;;;5074207;28;20044;-68
2023/05/02 00:42:12;;;;;;;4.07;3.63;;;;;;;;;;5073865;28;20044;-68
2023/05/02 00:44:39;;;;;;;7.53;5.10;;;;;;;;;;5073810;28;20048;-68
2023/05/02 00:47:05;;;;;;;7.32;4.82;;;;;;;;;;5073885;28;20056;-68
2023/05/02 00:49:32;;;;;;;4.88;3.88;;;;;;;;;;5073860;28;20131;-68
2023/05/02 00:51:58;;;;;;;4.20;3.80;;;;;;;;;;5073918;28;20131;-68
2023/05/02 00:54:25;;;;;;;4.75;3.70;;;;;;;;;;5073627;28;20056;-68
2023/05/02 00:56:51;;;;;;;5.05;3.67;;;;;;;;;;5073633;28;20052;-68
2023/05/02 00:59:18;;;;;;;5.45;3.30;;;;;;;;;;5073669;28;20411;-68
2023/05/02 01:01:44;;;;;;;3.58;2.60;;;;;;;;;;5073642;28;20055;-68
2023/05/02 01:04:30;;;;;;;4.32;3.47;;;;;;;;;;5073273;28;20563;-68
2023/05/02 01:07:19;;;;;;;3.50;3.20;;;;;;;;;;5073448;28;20053;-68
2023/05/02 01:09:46;;;;;;;4.47;3.42;;;;;;;;;;5053982;28;20057;-68
2023/05/02 01:12:20;;;;;;;3.60;3.15;;;;;;;;;;5073519;28;20060;-68
2023/05/02 01:14:52;;;;;;;4.93;3.28;;;;;;;;;;5073259;28;20135;-68
2023/05/02 01:17:19;;;;;;;4.05;2.75;;;;;;;;;;5073224;28;20040;-68
2023/05/02 01:19:51;;;;;;;3.20;2.90;;;;;;;;;;5073202;28;20071;-68
2023/05/02 01:22:18;;;;;;;2.92;2.63;;;;;;;;;;5073106;28;20503;-68
2023/05/02 01:24:45;;;;;;;5.30;3.40;;;;;;;;;;5073146;28;20155;-68
2023/05/02 01:27:29;;;;;;;3.75;3.33;;;;;;;;;;5071825;28;20059;-68
2023/05/02 01:29:57;;;;;;;3.15;2.85;;;;;;;;;;5073251;28;20087;-68
2023/05/02 01:32:25;;;;;;;6.40;3.30;;;;;;;;;;5066722;28;20056;-68
2023/05/02 01:34:52;;;;;;;3.53;2.88;;;;;;;;;;5072822;28;20608;-68
2023/05/02 01:37:19;;;;;;;3.65;3.25;;;;;;;;;;5071407;28;20510;-68
2023/05/02 01:39:45;;;;;;;3.73;2.90;;;;;;;;;;5072796;28;20051;-68
2023/05/02 01:42:12;;;;;;;4.63;3.47;;;;;;;;;;5073052;28;20054;-68
2023/05/02 01:44:40;;;;;;;4.20;3.03;;;;;;;;;;5073050;28;20475;-68
2023/05/02 01:47:08;;;;;;;3.55;3.22;;;;;;;;;;5072870;28;20285;-68
2023/05/02 01:49:34;;;;;;;;;;;;;;;;;;5072965;28;20056;-69
2023/05/02 01:52:02;;;;;;;5.32;3.50;;;;;;;;;;5072697;28;19920;-69
2023/05/02 01:54:30;;;;;;;3.35;3.00;;;;;;;;;;5072650;28;20052;-68
2023/05/02 01:56:57;;;;;;;4.55;3.15;;;;;;;;;;5072620;28;20045;-68
2023/05/02 01:59:25;;;;;;;4.65;3.20;;;;;;;;;;5072292;28;20040;-69
2023/05/02 02:01:51;;;;;;;;;;;;;;;;;;5072790;28;20529;-68
2023/05/02 02:04:18;;;;;;;3.53;2.90;;;;;;;;;;5072113;28;19920;-68
2023/05/02 02:06:47;;;;;;;3.95;2.78;;;;;;;;;;5072487;28;20095;-68
2023/05/02 02:09:13;;;;;;;2.83;2.60;;;;;;;;;;5072349;28;20052;-68
2023/05/02 02:11:46;;;;;;;5.22;2.60;;;;;;;;;;5072408;28;20052;-68
2023/05/02 02:14:20;;;;;;;4.75;2.80;;;;;;;;;;5072388;28;20495;-68
2023/05/02 02:16:47;;;;;;;4.50;3.10;;;;;;;;;;5072311;28;20420;-68
2023/05/02 02:19:14;;;;;;;3.22;2.72;;;;;;;;;;5072368;28;20048;-68
2023/05/02 02:21:42;;;;;;;4.50;3.17;;;;;;;;;;5071920;28;20055;-68
2023/05/02 02:24:08;;;;;;;3.90;2.88;;;;;;;;;;5071892;28;20644;-68
2023/05/02 02:26:35;;;;;;;3.67;2.95;;;;;;;;;;5071872;28;20434;-68
2023/05/02 02:29:02;;;;;;;3.80;2.88;;;;;;;;;;5072075;28;20052;-68
2023/05/02 02:31:29;;;;;;;3.15;2.85;;;;;;;;;;5071800;28;20054;-68
2023/05/02 02:33:56;;;;;;;6.93;3.53;;;;;;;;;;5072128;28;20052;-68
2023/05/02 02:36:45;;;;;;;4.30;3.17;;;;;;;;;;5071676;28;20059;-68
2023/05/02 02:39:21;;;;;;;3.33;2.65;;;;;;;;;;5065831;28;20051;-68
2023/05/02 02:41:50;;;;;;;6.72;3.60;;;;;;;;;;5071886;28;20147;-68
2023/05/02 02:44:29;;;;;;;4.95;3.17;;;;;;;;;;5072013;28;20044;-68
2023/05/02 02:47:08;;;;;;;3.92;3.22;;;;;;;;;;5071530;28;20048;-68
2023/05/02 02:49:54;;;;;;;3.83;3.30;;;;;;;;;;5071520;28;20055;-69
2023/05/02 02:52:27;;;;;;;5.75;3.30;;;;;;;;;;5071884;28;20123;-68
2023/05/02 02:55:06;;;;;;;4.70;3.17;;;;;;;;;;5071536;28;20062;-68
2023/05/02 02:57:38;;;;;;;4.60;3.45;;;;;;;;;;5071440;28;20084;-69
2023/05/02 03:00:10;;;;;;;4.07;3.65;;;;;;;;;;5071443;28;20407;-69
2023/05/02 03:02:39;;;;;;;3.50;3.08;;;;;;;;;;5071648;28;20072;-68
2023/05/02 03:05:06;;;;;;;5.30;3.40;;;;;;;;;;5071450;28;20048;-68
2023/05/02 03:07:33;;;;;;;4.35;3.38;;;;;;;;;;5071674;28;20044;-68
2023/05/02 03:10:01;;;;;;;3.80;3.50;;;;;;;;;;5071427;28;20100;-68
2023/05/02 03:12:28;;;;;;;4.40;4.00;;;;;;;;;;5071498;28;20084;-68
2023/05/02 03:15:15;;;;;;;6.07;4.28;;;;;;;;;;5071675;28;20044;-68
2023/05/02 03:17:41;;;;;;;5.30;4.70;;;;;;;;;;5071207;28;20048;-68
2023/05/02 03:20:08;;;;;;;7.15;4.65;;;;;;;;;;5071276;28;20057;-68
2023/05/02 03:22:34;;;;;;;4.80;3.67;;;;;;;;;;5071264;28;20055;-68
2023/05/02 03:25:00;;;;;;;4.22;3.80;;;;;;;;;;5071465;28;20436;-68
2023/05/02 03:27:27;;;;;;;4.25;3.85;;;;;;;;;;5071264;28;20496;-68
2023/05/02 03:29:53;;;;;;;5.05;4.00;;;;;;;;;;5071345;28;20044;-68
2023/05/02 03:32:19;;;;;;;5.13;4.00;;;;;;;;;;5071331;28;20053;-68
2023/05/02 03:34:46;;;;;;;6.35;4.03;;;;;;;;;;5071182;28;20044;-68
2023/05/02 03:37:12;;;;;;;5.05;3.78;;;;;;;;;;5071348;28;20048;-68
2023/05/02 03:39:39;;;;;;;5.68;3.92;;;;;;;;;;5071290;28;20052;-68
2023/05/02 03:42:05;;;;;;;5.15;3.63;;;;;;;;;;5071204;28;20041;-68
2023/05/02 03:44:31;;;;;;;4.97;3.72;;;;;;;;;;5071192;28;20040;-68
2023/05/02 03:46:58;;;;;;;4.68;3.95;;;;;;;;;;5070921;28;20545;-68
2023/05/02 03:49:24;;;;;;;5.72;4.03;;;;;;;;;;5070970;28;20056;-68
2023/05/02 03:51:51;;;;;;;4.10;3.55;;;;;;;;;;5073721;28;20134;-68
2023/05/02 03:54:17;;;;;;;7.10;4.03;;;;;;;;;;5075033;28;20070;-68
2023/05/02 03:56:44;;;;;;;5.53;4.43;;;;;;;;;;5074718;28;20509;-68
2023/05/02 03:59:10;;;;;;;4.68;3.55;;;;;;;;;;5074618;28;20052;-68
2023/05/02 04:01:37;;;;;;;4.75;4.28;;;;;;;;;;5074942;28;20060;-68
2023/05/02 04:04:04;;;;;;;4.63;4.20;;;;;;;;;;5074405;28;20048;-68
2023/05/02 04:06:31;;;;;;;5.35;4.32;;;;;;;;;;5074588;28;20047;-68
2023/05/02 04:08:58;;;;;;;4.65;4.22;;;;;;;;;;5074408;28;20492;-68
2023/05/02 04:11:25;;;;;;;5.72;3.85;;;;;;;;;;5074482;28;20049;-68
2023/05/02 04:13:52;;;;;;;5.10;3.83;;;;;;;;;;5074551;28;20045;-68
2023/05/02 04:16:18;;;;;;;4.72;3.63;;;;;;;;;;5073271;28;20055;-68
2023/05/02 04:18:45;;;;;;;4.40;4.00;;;;;;;;;;5074260;28;20098;-68
2023/05/02 04:21:11;;;;;;;5.53;3.90;;;;;;;;;;5074373;28;20051;-68
2023/05/02 04:23:38;;;;;;;4.03;3.65;;;;;;;;;;5074217;28;20053;-68
2023/05/02 04:26:05;;;;;;;5.32;3.78;;;;;;;;;;5072960;28;20066;-68
2023/05/02 04:28:31;;;;;;;4.82;3.92;;;;;;;;;;5074437;28;20202;-68
2023/05/02 04:30:58;;;;;;;6.22;4.53;;;;;;;;;;5073989;28;20057;-68
2023/05/02 04:33:24;;;;;;;4.80;4.22;;;;;;;;;;5074298;28;20131;-68
2023/05/02 04:35:51;;;;;;;4.28;3.92;;;;;;;;;;5074032;28;20056;-68
2023/05/02 04:38:18;;;;;;;7.13;4.93;;;;;;;;;;5074327;28;20481;-68
2023/05/02 04:40:44;;;;;;;6.00;4.47;;;;;;;;;;5073969;28;20070;-68
2023/05/02 04:43:11;;;;;;;5.32;4.43;;;;;;;;;;5073965;28;20475;-68
2023/05/02 04:45:37;;;;;;;5.35;4.85;;;;;;;;;;5073671;28;20058;-68
2023/05/02 04:48:04;;;;;;;5.03;4.25;;;;;;;;;;5073694;28;20059;-68
2023/05/02 04:50:31;;;;;;;4.65;4.00;;;;;;;;;;5073715;28;20545;-68
2023/05/02 04:52:58;;;;;;;4.45;4.05;;;;;;;;;;5074022;28;20059;-68
2023/05/02 04:55:24;;;;;;;5.50;4.15;;;;;;;;;;5059817;28;20136;-68
2023/05/02 04:57:50;;;;;;;6.03;4.55;;;;;;;;;;5073586;28;20132;-68
2023/05/02 05:00:17;;;;;;;6.18;3.70;;;;;;;;;;5073580;28;20144;-68
2023/05/02 05:02:43;;;;;;;5.65;4.10;;;;;;;;;;5073341;28;20064;-68
2023/05/02 05:05:10;;;;;;;5.38;4.28;;;;;;;;;;5073379;28;20083;-68
2023/05/02 05:07:36;;;;;;;5.90;4.13;;;;;;;;;;5073383;28;20049;-68
2023/05/02 05:10:03;;;;;;;4.90;4.35;;;;;;;;;;5073432;28;20053;-68
2023/05/02 05:12:29;;;;;;;4.22;3.78;;;;;;;;;;5073232;28;20175;-68
2023/05/02 05:14:56;;;;;;;5.75;4.05;;;;;;;;;;5073305;28;20516;-68
2023/05/02 05:17:22;;;;;;;4.95;3.97;;;;;;;;;;5073195;28;20563;-68
2023/05/02 05:19:48;;;;;;;5.20;4.25;;;;;;;;;;5072173;28;20098;-68
2023/05/02 05:22:15;;;;;;;5.28;4.43;;;;;;;;;;5073074;28;20048;-68
2023/05/02 05:24:41;;;;;;;5.47;4.78;;;;;;;;;;5073222;28;20040;-68
2023/05/02 05:27:08;;;;;;;5.30;4.38;;;;;;;;;;5073032;28;20052;-68
2023/05/02 05:29:35;;;;;;;7.95;5.15;;;;;;;;;;5072925;28;20132;-68
2023/05/02 05:32:01;;;;;;;6.88;6.28;;;;;;;;;;5073223;28;20045;-68
2023/05/02 05:34:28;;;;;;;8.73;7.82;;;;;;;;;;5073066;28;20102;-68
2023/05/02 05:36:54;;;;;;;9.32;8.07;;;;;;;;;;5072734;28;20048;-68
2023/05/02 05:39:20;;;;;;;8.95;8.05;;;;;;;;;;5072714;28;20045;-68
2023/05/02 05:41:47;;;;;;;9.38;8.48;;;;;;;;;;5072897;28;20123;-68
2023/05/02 05:44:13;;;;;;;9.88;8.95;;;;;;;;;;5072661;28;20495;-68
2023/05/02 05:46:40;;;;;;;10.98;9.90;;;;;;;;;;5072864;28;20048;-68
2023/05/02 05:49:06;;;;;;;11.55;10.48;;;;;;;;;;5072640;28;20055;-68
2023/05/02 05:51:34;;;;;;;12.18;10.98;;;;;;;;;;5072472;28;20139;-68
2023/05/02 05:54:01;;;;;;;13.20;11.90;;;;;;;;;;5072487;28;20044;-68
2023/05/02 05:56:27;;;;;;;13.43;12.23;;;;;;;;;;5072708;28;20431;-68
2023/05/02 05:58:53;;;;;;;14.80;13.20;;;;;;;;;;5072211;28;20124;-68
2023/05/02 06:01:20;;;;;;;14.18;12.68;;;;;;;;;;5072564;28;20099;-68
2023/05/02 06:03:47;;;;;;;14.23;12.82;;;;;;;;;;5072281;28;20041;-68
2023/05/02 06:06:13;;;;;;;15.67;14.00;;;;;;;;;;5072823;28;20048;-68
2023/05/02 06:08:40;;;;;;;15.65;13.80;;;;;;;;;;5072473;28;20287;-68
2023/05/02 06:11:10;;;;;;;16.75;14.27;;;;;;;;;;5071974;28;20067;-68
2023/05/02 06:13:36;;;;;;;15.85;14.30;;;;;;;;;;5071803;28;20053;-68
2023/05/02 06:16:03;;;;;;;18.50;16.75;;;;;;;;;;5072155;28;20055;-68
2023/05/02 06:18:30;;;;;;;17.30;15.48;;;;;;;;;;5072111;28;20056;-68
2023/05/02 06:20:56;;;;;;;18.38;16.38;;;;;;;;;;5065025;28;20472;-69
2023/05/02 06:23:23;;;;;;;17.67;15.80;;;;;;;;;;5051917;28;20488;-69
2023/05/02 06:25:49;;;;;;;18.23;16.42;;;;;;;;;;5052229;28;20079;-69
2023/05/02 06:28:16;;;;;;;18.25;16.35;;;;;;;;;;5054954;28;20041;-69
2023/05/02 06:30:42;;;;;;;19.35;16.23;;;;;;;;;;5051494;28;20431;-69
2023/05/02 06:33:08;;;;;;;18.48;16.48;;;;;;;;;;5052040;28;20051;-69
2023/05/02 06:35:35;;;;;;;19.40;17.25;;;;;;;;;;5051657;28;20516;-69
2023/05/02 06:38:01;;;;;;;18.45;16.17;;;;;;;;;;5051464;28;20060;-69
2023/05/02 06:40:27;;;;;;;18.70;16.67;;;;;;;;;;5056247;28;20047;-69
2023/05/02 06:42:54;;;;;;;18.42;16.55;;;;;;;;;;5071595;28;20146;-69
2023/05/02 06:45:20;;;;;;;18.70;16.70;;;;;;;;;;5070463;28;20080;-69
2023/05/02 06:47:47;;;;;;;19.15;17.15;;;;;;;;;;5071869;28;20153;-69
2023/05/02 06:50:14;;;;;;;19.38;16.02;;;;;;;;;;5056649;28;20084;-69
2023/05/02 06:52:41;;;;;;;17.15;15.35;;;;;;;;;;5071542;28;20132;-69
2023/05/02 06:55:07;;;;;;;17.65;15.77;;;;;;;;;;5071698;28;20053;-69
2023/05/02 06:57:34;;;;;;;17.08;15.27;;;;;;;;;;5071677;28;20454;-68
2023/05/02 07:00:00;;;;;;;17.50;15.63;;;;;;;;;;5071548;28;20079;-69
2023/05/02 07:02:27;;;;;;;17.70;15.83;;;;;;;;;;5067967;28;20040;-68
2023/05/02 07:04:53;;;;;;;17.55;15.68;;;;;;;;;;5050937;28;20135;-68
2023/05/02 07:07:20;;;;;;;18.58;16.25;;;;;;;;;;5066926;28;20132;-69
2023/05/02 07:09:47;;;;;;;19.52;16.38;;;;;;;;;;5070058;28;20500;-69
2023/05/02 07:12:14;;;;;;;18.52;16.63;;;;;;;;;;5070316;28;20052;-69
2023/05/02 07:14:40;;;;;;;18.45;16.42;;;;;;;;;;5070946;28;20059;-69
2023/05/02 07:17:07;;;;;;;19.05;16.60;;;;;;;;;;5070497;28;20040;-69
2023/05/02 07:19:33;;;;;;;19.27;17.30;;;;;;;;;;5070647;28;20087;-69
2023/05/02 07:22:00;;;;;;;19.73;17.63;;;;;;;;;;5071134;28;20412;-70
2023/05/02 07:24:26;;;;;;;20.42;17.27;;;;;;;;;;5061232;28;20052;-68
2023/05/02 07:26:52;;;;;;;19.08;17.08;;;;;;;;;;5068693;28;20075;-69
2023/05/02 07:29:19;;;;;;;19.50;17.42;;;;;;;;;;5048404;28;20045;-68
2023/05/02 07:31:45;;;;;;;20.10;17.88;;;;;;;;;;5055314;28;20052;-68
2023/05/02 07:34:11;;;;;;;19.92;17.70;;;;;;;;;;5055306;28;20041;-68
2023/05/02 07:36:38;;;;;;;19.77;17.67;;;;;;;;;;5065131;28;20048;-69
2023/05/02 07:39:04;;;;;;;19.33;17.38;;;;;;;;;;5075126;28;20052;-68
2023/05/02 07:41:31;;;;;;;19.15;17.15;;;;;;;;;;5058165;28;20052;-69
2023/05/02 07:43:57;;;;;;;20.05;18.10;;;;;;;;;;5073347;28;20036;-69
2023/05/02 07:46:23;;;;;;;21.45;18.13;;;;;;;;;;5060587;28;20075;-69
2023/05/02 07:48:52;;;;;;;21.75;18.80;;;;;;;;;;5075130;28;20056;-69
2023/05/02 07:51:20;;;;;;;20.90;18.80;;;;;;;;;;5068211;28;20049;-69
2023/05/02 07:53:49;;;;;;;21.95;18.60;;;;;;;;;;5067586;28;20415;-69
2023/05/02 07:56:15;;;;;;;22.52;19.20;;;;;;;;;;5074691;28;20044;-69
2023/05/02 07:58:42;;;;;;;20.88;18.65;;;;;;;;;;5073426;28;20075;-69
2023/05/02 08:01:09;;;;;;;21.02;18.90;;;;;;;;;;5074914;28;20048;-69
2023/05/02 08:03:35;;;;;;;19.67;17.67;;;;;;;;;;5074866;28;20049;-69
2023/05/02 08:06:02;;;;;;;20.95;18.85;;;;;;;;;;5059208;28;20066;-69
2023/05/02 08:08:29;;;;;;;22.67;20.10;;;;;;;;;;5068038;28;20067;-68
2023/05/02 08:10:55;;;;;;;23.02;19.90;;;;;;;;;;5074624;28;20309;-69
2023/05/02 08:13:22;;;;;;;24.52;20.70;;;;;;;;;;5074418;28;20048;-68
2023/05/02 08:15:48;;;;;;;24.00;21.50;;;;;;;;;;5074652;28;20044;-68
2023/05/02 08:18:15;;;;;;;22.23;20.00;;;;;;;;;;5074624;28;20490;-68
2023/05/02 08:20:42;;;;;;;24.30;20.73;;;;;;;;;;5074552;28;20048;-68
2023/05/02 08:23:08;;;;;;;26.70;22.53;;;;;;;;;;5074395;28;20460;-69
2023/05/02 08:25:35;;;;;;;25.60;22.45;;;;;;;;;;5074505;28;20381;-68
2023/05/02 08:28:01;;;;;;;27.02;23.40;;;;;;;;;;5072369;28;20403;-68
2023/05/02 08:30:28;;;;;;;24.77;22.17;;;;;;;;;;5073845;28;20079;-69
2023/05/02 08:32:54;;;;;;;19.60;17.50;;;;;;;;;;5073779;28;20049;-69
2023/05/02 08:35:20;;;;;;;20.08;17.92;;;;;;;;;;5057432;28;20048;-68
2023/05/02 08:37:47;;;;;;;19.25;17.35;;;;;;;;;;5073190;28;20052;-68
2023/05/02 08:40:15;;;;;;;19.35;17.38;;;;;;;;;;5073892;28;20053;-69
2023/05/02 08:42:53;;;;;;;19.00;17.13;;;;;;;;;;5074049;28;20048;-68
2023/05/02 08:45:21;;;;;;;18.33;16.52;;;;;;;;;;5073984;28;20044;-68
2023/05/02 08:47:48;;;;;;;18.88;17.00;;;;;;;;;;5074052;28;20048;-69
2023/05/02 08:50:16;;;;;;;18.13;16.30;;;;;;;;;;5054266;28;20048;-68
2023/05/02 08:52:44;;;;;;;20.60;17.17;;;;;;;;;;5069757;28;20560;-68
2023/05/02 08:55:11;;;;;;;18.48;16.67;;;;;;;;;;5073588;28;20415;-68
2023/05/02 08:57:38;;;;;;;18.55;16.63;;;;;;;;;;5073829;28;20045;-68
2023/05/02 09:00:05;;;;;;;17.50;15.57;;;;;;;;;;5061946;28;20048;-68
2023/05/02 09:02:35;;;;;;;18.27;16.45;;;;;;;;;;5070768;28;20041;-68
2023/05/02 09:05:05;;;;;;;16.50;14.98;;;;;;;;;;5069937;28;20056;-68
2023/05/02 09:07:42;;;;;;;17.00;15.50;;;;;;;;;;5063278;28;20404;-68
2023/05/02 09:10:08;;;;;;;16.88;14.88;;;;;;;;;;5071870;28;20407;-68
2023/05/02 09:12:35;;;;;;;16.65;15.05;;;;;;;;;;5060516;28;20122;-68
2023/05/02 09:15:08;;;;;;;14.80;13.30;;;;;;;;;;5073530;28;20063;-69
2023/05/02 09:17:38;;;;;;;16.73;13.10;;;;;;;;;;5073452;28;20456;-69
2023/05/02 09:20:05;;;;;;;13.93;12.52;;;;;;;;;;5073118;28;20044;-68
2023/05/02 09:22:33;;;;;;;12.60;11.50;;;;;;;;;;5058424;28;20048;-68
2023/05/02 09:24:59;;;;;;;;;;;;;;;;;;5073508;28;20284;-68
2023/05/02 09:27:26;;;;;;;12.77;10.60;;;;;;;;;;5072958;28;19925;-68
2023/05/02 09:30:12;;;;;;;11.15;10.07;;;;;;;;;;5073346;28;20480;-69
2023/05/02 09:32:45;;;;;;;12.13;10.90;;;;;;;;;;5072840;28;20057;-68
2023/05/02 09:35:13;;;;;;;10.63;9.52;;;;;;;;;;5072788;28;20088;-69
2023/05/02 09:37:39;;;;;;;10.23;9.32;;;;;;;;;;5072754;28;20095;-69
2023/05/02 09:40:06;;;;;;;10.05;9.25;;;;;;;;;;5072769;28;20044;-69
2023/05/02 09:42:32;;;;;;;10.97;9.97;;;;;;;;;;5073043;28;20052;-69
2023/05/02 09:44:59;;;;;;;10.05;9.15;;;;;;;;;;5073012;28;20124;-69
2023/05/02 09:47:26;;;;;;;10.15;9.35;;;;;;;;;;5072502;28;20083;-69
2023/05/02 09:49:52;;;;;;;10.88;9.68;;;;;;;;;;5072020;28;20492;-69
2023/05/02 09:52:20;;;;;;;11.48;10.38;;;;;;;;;;5072500;28;20529;-69
2023/05/02 09:54:49;;;;;;;;;;;;;;;;;;5073043;28;20052;-69
2023/05/02 09:57:15;;;;;;;12.70;11.32;;;;;;;;;;5072505;28;19920;-69
2023/05/02 09:59:52;;;;;;;12.13;11.02;;;;;;;;;;5072093;28;20495;-69
2023/05/02 10:02:20;;;;;;;13.05;11.05;;;;;;;;;;5072187;28;20102;-68
2023/05/02 10:04:47;;;;;;;12.95;11.75;;;;;;;;;;5072496;28;20053;-69
2023/05/02 10:07:15;;;;;;;12.52;11.23;;;;;;;;;;5072388;28;20530;-69
2023/05/02 10:09:43;;;;;;;13.02;11.63;;;;;;;;;;5057495;28;20048;-69
2023/05/02 10:12:12;;;;;;;12.63;11.43;;;;;;;;;;5072311;28;20060;-68
2023/05/02 10:14:42;;;;;;;12.80;11.50;;;;;;;;;;5072246;28;20052;-69
2023/05/02 10:17:29;;;;;;;12.07;10.90;;;;;;;;;;5071066;28;20083;-69
2023/05/02 10:19:57;;;;;;;12.60;11.30;;;;;;;;;;5072207;28;20048;-68
2023/05/02 10:22:24;;;;;;;13.85;11.48;;;;;;;;;;5066844;28;20048;-69
2023/05/02 10:24:51;;;;;;;12.68;11.50;;;;;;;;;;5051737;28;20060;-68
2023/05/02 10:27:18;;;;;;;13.68;12.30;;;;;;;;;;5069881;28;20083;-69
2023/05/02 10:29:45;;;;;;;13.50;11.57;;;;;;;;;;5072214;28;20403;-69
2023/05/02 10:32:13;;;;;;;12.68;11.48;;;;;;;;;;5071968;28;20058;-69
2023/05/02 10:34:40;;;;;;;14.73;11.38;;;;;;;;;;5057760;28;20067;-69
2023/05/02 10:37:06;;;;;;;13.02;11.75;;;;;;;;;;5064633;28;20049;-68
2023/05/02 10:39:33;;;;;;;13.68;11.35;;;;;;;;;;5071582;28;20583;-69
2023/05/02 10:42:03;;;;;;;12.82;11.52;;;;;;;;;;5071837;28;20055;-68
2023/05/02 10:44:39;;;;;;;11.77;10.60;;;;;;;;;;5056926;28;20057;-69
2023/05/02 10:47:18;;;;;;;11.05;9.95;;;;;;;;;;5071552;28;20127;-69
2023/05/02 10:49:51;;;;;;;11.13;10.13;;;;;;;;;;5071546;28;20554;-69
2023/05/02 10:52:24;;;;;;;11.43;9.30;;;;;;;;;;5067123;28;20060;-69
2023/05/02 10:54:51;;;;;;;11.90;9.80;;;;;;;;;;5062639;28;20056;-69
2023/05/02 10:57:17;;;;;;;10.83;9.73;;;;;;;;;;5071513;28;20492;-69
2023/05/02 10:59:45;;;;;;;10.68;9.45;;;;;;;;;;5060233;28;20060;-69
2023/05/02 11:02:27;;;;;;;10.25;9.15;;;;;;;;;;5054599;28;20044;-69
2023/05/02 11:05:00;;;;;;;10.20;9.30;;;;;;;;;;5071593;28;20127;-69
2023/05/02 11:07:27;;;;;;;11.93;9.68;;;;;;;;;;5056968;28;20049;-69
2023/05/02 11:10:14;;;;;;;10.47;9.40;;;;;;;;;;5071373;28;20053;-69
2023/05/02 11:12:48;;;;;;;8.68;7.88;;;;;;;;;;5064405;28;20384;-69
2023/05/02 11:15:37;;;;;;;9.80;8.43;;;;;;;;;;5071866;28;20059;-69
2023/05/02 11:18:07;;;;;;;9.63;8.73;;;;;;;;;;5064789;28;20094;-69
2023/05/02 11:20:35;;;;;;;9.07;8.27;;;;;;;;;;5071337;28;20076;-69
2023/05/02 11:23:20;;;;;;;9.02;8.07;;;;;;;;;;5071507;28;20036;-69
2023/05/02 11:25:47;;;;;;;8.85;8.02;;;;;;;;;;5071204;28;20052;-69
2023/05/02 11:28:32;;;;;;;8.45;7.65;;;;;;;;;;5071296;28;20527;-69
2023/05/02 11:30:59;;;;;;;8.63;7.68;;;;;;;;;;5071281;28;20495;-69
2023/05/02 11:33:27;;;;;;;8.38;7.57;;;;;;;;;;5071413;28;20076;-69
2023/05/02 11:35:55;;;;;;;8.27;7.05;;;;;;;;;;5071315;28;20049;-69
2023/05/02 11:38:22;;;;;;;8.65;7.85;;;;;;;;;;5071410;28;20078;-69
2023/05/02 11:40:49;;;;;;;7.60;6.90;;;;;;;;;;5071393;28;20127;-69
2023/05/02 11:43:17;;;;;;;8.13;7.32;;;;;;;;;;5071350;28;20049;-69
2023/05/02 11:45:44;;;;;;;8.63;7.13;;;;;;;;;;5070991;28;20095;-69
2023/05/02 11:48:10;;;;;;;;;;;;;;;;;;5071432;28;20620;-69
2023/05/02 11:50:41;;;;;;;8.10;7.40;;;;;;;;;;5051039;28;19928;-69
2023/05/02 11:53:16;;;;;;;7.35;6.70;;;;;;;;;;5065806;28;20491;-69
2023/05/02 11:55:46;;;;;;;7.07;6.57;;;;;;;;;;5070986;28;20053;-70
2023/05/02 11:58:14;;;;;;;6.47;5.88;;;;;;;;;;5071195;28;20135;-70
2023/05/02 12:00:41;;;;;;;7.57;6.88;;;;;;;;;;5070548;28;20066;-70
2023/05/02 12:03:07;;;;;;;;;;;;;;;;;;5054812;28;20485;-69
2023/05/02 12:05:34;;;;;;;8.60;7.80;;;;;;;;;;5059328;28;20413;-69
2023/05/02 12:08:01;;;;;;;7.60;7.00;;;;;;;;;;5056273;28;20047;-70
2023/05/02 12:10:27;;;;;;;;;;;;;;;;;;5070504;28;20076;-69
2023/05/02 12:13:02;;;;;;;8.15;7.07;;;;;;;;;;5072392;28;19920;-69
2023/05/02 12:15:29;;;;;;;8.20;7.50;;;;;;;;;;5073952;28;20102;-69
2023/05/02 12:17:55;;;;;;;7.90;7.10;;;;;;;;;;5074081;28;20514;-69
2023/05/02 12:20:22;;;;;;;8.80;7.77;;;;;;;;;;5073942;28;20319;-69
2023/05/02 12:22:48;;;;;;;9.48;7.85;;;;;;;;;;5074339;28;20046;-69
2023/05/02 12:25:15;;;;;;;8.77;7.97;;;;;;;;;;5074095;28;20055;-69
2023/05/02 12:27:41;;;;;;;9.07;8.00;;;;;;;;;;5074484;28;20102;-69
2023/05/02 12:30:08;;;;;;;8.38;7.53;;;;;;;;;;5073674;28;20420;-69
2023/05/02 12:32:35;;;;;;;9.00;8.00;;;;;;;;;;5074111;28;20523;-69
2023/05/02 12:35:02;;;;;;;7.40;6.80;;;;;;;;;;5074218;28;20059;-69
2023/05/02 12:37:29;;;;;;;8.57;7.80;;;;;;;;;;5073816;28;20060;-69
2023/05/02 12:39:55;;;;;;;9.20;7.95;;;;;;;;;;5053930;28;20084;-67
2023/05/02 12:42:22;;;;;;;8.63;7.83;;;;;;;;;;5045710;28;20040;-69
2023/05/02 12:44:53;;;;;;;9.25;8.32;;;;;;;;;;5066323;28;20055;-69
2023/05/02 12:47:21;;;;;;;8.55;7.75;;;;;;;;;;5072409;28;20049;-70
2023/05/02 12:49:52;;;;;;;8.45;7.57;;;;;;;;;;5073493;28;20057;-68
2023/05/02 12:52:41;;;;;;;9.00;8.18;;;;;;;;;;5056765;28;20123;-69
2023/05/02 12:55:14;;;;;;;8.00;7.25;;;;;;;;;;5063124;28;20135;-68
2023/05/02 12:57:40;;;;;;;7.57;6.85;;;;;;;;;;5063150;28;20051;-69
2023/05/02 13:00:07;;;;;;;7.80;6.90;;;;;;;;;;5059300;28;20048;-66
2023/05/02 13:02:33;;;;;;;8.05;7.25;;;;;;;;;;5056507;28;20053;-69
2023/05/02 13:05:00;;;;;;;7.43;6.63;;;;;;;;;;5072908;28;20075;-69
2023/05/02 13:07:26;;;;;;;7.70;7.00;;;;;;;;;;5069758;28;20053;-70
2023/05/02 13:09:53;;;;;;;7.37;6.77;;;;;;;;;;5052032;28;20045;-69
2023/05/02 13:12:19;;;;;;;7.20;6.60;;;;;;;;;;5067787;28;20045;-70
2023/05/02 13:14:45;;;;;;;7.13;6.43;;;;;;;;;;5063758;28;20543;-70
2023/05/02 13:17:12;;;;;;;5.97;5.47;;;;;;;;;;5054853;28;20095;-70
2023/05/02 13:19:38;;;;;;;6.30;5.72;;;;;;;;;;5061823;28;20048;-70
2023/05/02 13:22:12;;;;;;;6.18;5.57;;;;;;;;;;5062579;28;20152;-70
2023/05/02 13:24:39;;;;;;;6.45;5.85;;;;;;;;;;5063063;28;20048;-70
2023/05/02 13:27:05;;;;;;;5.90;5.32;;;;;;;;;;5072025;28;20041;-70
2023/05/02 13:29:31;;;;;;;6.25;5.65;;;;;;;;;;5058830;28;20078;-70
2023/05/02 13:31:58;;;;;;;5.05;4.65;;;;;;;;;;5071619;28;20052;-70
2023/05/02 13:34:24;;;;;;;;;;;;;;;;;;5064170;28;20056;-70
2023/05/02 13:36:51;;;;;;;6.68;6.07;;;;;;;;;;5072938;28;20011;-70
2023/05/02 13:39:17;;;;;;;8.10;6.10;;;;;;;;;;5062535;28;20056;-70
2023/05/02 13:41:44;;;;;;;6.13;5.30;;;;;;;;;;5073051;28;20047;-70
2023/05/02 13:44:10;;;;;;;6.38;5.78;;;;;;;;;;5060724;28;20047;-70
2023/05/02 13:46:37;;;;;;;6.45;5.93;;;;;;;;;;5071232;28;20060;-70
2023/05/02 13:49:03;;;;;;;6.03;5.43;;;;;;;;;;5059877;28;20381;-70
2023/05/02 13:51:31;;;;;;;6.30;5.50;;;;;;;;;;5072839;28;20044;-70
2023/05/02 13:53:57;;;;;;;6.47;5.70;;;;;;;;;;5058848;28;20048;-69
2023/05/02 13:56:24;;;;;;;6.22;5.72;;;;;;;;;;5072450;28;20040;-70
2023/05/02 13:58:50;;;;;;;7.00;6.30;;;;;;;;;;5046389;28;20093;-70
2023/05/02 14:01:17;;;;;;;5.60;5.10;;;;;;;;;;5072553;28;20128;-69
2023/05/02 14:03:44;;;;;;;5.72;5.15;;;;;;;;;;5057255;28;20056;-69
2023/05/02 14:06:10;;;;;;;5.65;5.13;;;;;;;;;;5058041;28;20117;-69
2023/05/02 14:08:37;;;;;;;5.72;5.22;;;;;;;;;;5058986;28;20052;-70
2023/05/02 14:11:03;;;;;;;5.05;4.55;;;;;;;;;;5070927;28;20102;-70
2023/05/02 14:13:32;;;;;;;6.95;4.95;;;;;;;;;;5053654;28;20052;-70
2023/05/02 14:15:59;;;;;;;6.00;5.00;;;;;;;;;;5061050;28;20048;-70
2023/05/02 14:18:25;;;;;;;;;;;;;;;;;;5061250;28;20060;-70
2023/05/02 14:20:51;;;;;;;6.00;5.43;;;;;;;;;;5064953;28;19928;-69
2023/05/02 14:23:18;;;;;;;5.97;4.88;;;;;;;;;;5044952;28;20224;-69
2023/05/02 14:25:44;;;;;;;5.60;4.82;;;;;;;;;;5055547;28;20048;-69
2023/05/02 14:28:11;;;;;;;6.68;5.43;;;;;;;;;;5071723;28;20041;-69
2023/05/02 14:30:37;;;;;;;6.20;5.70;;;;;;;;;;5071912;28;20139;-68
2023/05/02 14:33:04;;;;;;;6.35;5.75;;;;;;;;;;5071406;28;20131;-69
2023/05/02 14:35:31;;;;;;;6.45;5.85;;;;;;;;;;5056209;28;20044;-69
2023/05/02 14:37:57;;;;;;;6.28;5.05;;;;;;;;;;5071547;28;20056;-69
2023/05/02 14:40:23;;;;;;;6.18;5.55;;;;;;;;;;5071295;28;20044;-69